sensor_id;sensor_type;location;lat;lon;timestamp;pressure;altitude;pressure_sealevel;temperature;humidity
79413;BME280;68863;49.528;11.010;2023-05-10T00:00:29;97521.59;;;17.26;59.25
79413;BME280;68863;49.528;11.010;2023-05-10T00:01:29;97518.78;;;17.28;58.90
79413;BME280;68863;49.528;11.010;2023-05-10T00:02:29;97522.91;;;17.30;59.17
79413;BME280;68863;49.528;11.010;2023-05-10T00:03:30;97515.97;;;17.29;59.22
79413;BME280;68863;49.528;11.010;2023-05-10T00:04:30;97510.00;;;17.19;59.50
79413;BME280;68863;49.528;11.010;2023-05-10T00:05:31;97514.50;;;17.19;59.67
79413;BME280;68863;49.528;11.010;2023-05-10T00:06:34;97510.34;;;17.16;59.96
79413;BME280;68863;49.528;11.010;2023-05-10T00:07:34;97517.47;;;17.15;60.04
79413;BME280;68863;49.528;11.010;2023-05-10T00:08:35;97510.81;;;17.28;59.82
79413;BME280;68863;49.528;11.010;2023-05-10T00:09:35;97507.81;;;17.31;59.94
79413;BME280;68863;49.528;11.010;2023-05-10T00:10:35;97508.50;;;17.33;60.28
79413;BME280;68863;49.528;11.010;2023-05-10T00:11:37;97511.28;;;17.39;60.15
79413;BME280;68863;49.528;11.010;2023-05-10T00:12:37;97512.63;;;17.44;60.31
79413;BME280;68863;49.528;11.010;2023-05-10T00:13:37;97510.63;;;17.46;60.47
79413;BME280;68863;49.528;11.010;2023-05-10T00:14:38;97506.97;;;17.38;60.61
79413;BME280;68863;49.528;11.010;2023-05-10T00:15:38;97509.97;;;17.44;60.62
79413;BME280;68863;49.528;11.010;2023-05-10T00:16:38;97512.97;;;17.41;60.66
79413;BME280;68863;49.528;11.010;2023-05-10T00:17:39;97511.47;;;17.30;61.57
79413;BME280;68863;49.528;11.010;2023-05-10T00:18:40;97512.63;;;17.35;61.13
79413;BME280;68863;49.528;11.010;2023-05-10T00:19:40;97511.47;;;17.30;61.06
79413;BME280;68863;49.528;11.010;2023-05-10T00:20:40;97509.34;;;17.25;60.82
79413;BME280;68863;49.528;11.010;2023-05-10T00:21:40;97513.31;;;17.29;60.92
79413;BME280;68863;49.528;11.010;2023-05-10T00:22:41;97514.50;;;17.19;61.36
79413;BME280;68863;49.528;11.010;2023-05-10T00:23:41;97507.69;;;17.24;61.56
79413;BME280;68863;49.528;11.010;2023-05-10T00:24:41;97511.00;;;17.18;61.83
79413;BME280;68863;49.528;11.010;2023-05-10T00:25:42;97514.31;;;17.20;61.86
79413;BME280;68863;49.528;11.010;2023-05-10T00:26:42;97510.16;;;17.26;61.87
79413;BME280;68863;49.528;11.010;2023-05-10T00:27:42;97507.53;;;17.18;62.00
79413;BME280;68863;49.528;11.010;2023-05-10T00:28:43;97503.72;;;17.12;62.18
79413;BME280;68863;49.528;11.010;2023-05-10T00:29:43;97502.38;;;17.24;62.04
79413;BME280;68863;49.528;11.010;2023-05-10T00:30:43;97502.72;;;17.21;62.28
79413;BME280;68863;49.528;11.010;2023-05-10T00:31:44;97504.88;;;17.18;62.51
79413;BME280;68863;49.528;11.010;2023-05-10T00:32:44;97498.09;;;17.15;62.70
79413;BME280;68863;49.528;11.010;2023-05-10T00:33:44;97508.19;;;17.20;62.66
79413;BME280;68863;49.528;11.010;2023-05-10T00:34:45;97498.78;;;17.09;62.46
79413;BME280;68863;49.528;11.010;2023-05-10T00:35:45;97505.72;;;17.10;63.23
79413;BME280;68863;49.528;11.010;2023-05-10T00:36:45;97497.59;;;17.03;63.65
79413;BME280;68863;49.528;11.010;2023-05-10T00:37:46;97500.25;;;17.03;63.25
79413;BME280;68863;49.528;11.010;2023-05-10T00:38:46;97502.06;;;17.11;63.27
79413;BME280;68863;49.528;11.010;2023-05-10T00:39:49;97495.63;;;16.97;64.07
79413;BME280;68863;49.528;11.010;2023-05-10T00:40:49;97493.81;;;16.89;64.51
79413;BME280;68863;49.528;11.010;2023-05-10T00:41:49;97496.97;;;16.93;64.38
79413;BME280;68863;49.528;11.010;2023-05-10T00:42:50;97495.28;;;16.92;64.71
79413;BME280;68863;49.528;11.010;2023-05-10T00:43:50;97493.47;;;16.93;64.35
79413;BME280;68863;49.528;11.010;2023-05-10T00:44:50;97492.63;;;17.00;64.22
79413;BME280;68863;49.528;11.010;2023-05-10T00:45:54;97494.78;;;16.97;64.77
79413;BME280;68863;49.528;11.010;2023-05-10T00:46:54;97492.47;;;17.02;64.54
79413;BME280;68863;49.528;11.010;2023-05-10T00:47:55;97492.00;;;16.90;65.17
79413;BME280;68863;49.528;11.010;2023-05-10T00:48:56;97492.47;;;17.02;65.20
79413;BME280;68863;49.528;11.010;2023-05-10T00:49:56;97491.50;;;16.95;64.87
79413;BME280;68863;49.528;11.010;2023-05-10T00:50:57;97495.47;;;16.90;65.08
79413;BME280;68863;49.528;11.010;2023-05-10T00:51:57;97493.13;;;16.96;65.09
79413;BME280;68863;49.528;11.010;2023-05-10T00:52:59;97495.66;;;16.89;65.42
79413;BME280;68863;49.528;11.010;2023-05-10T00:54:00;97493.34;;;16.86;65.90
79413;BME280;68863;49.528;11.010;2023-05-10T00:55:00;97494.63;;;16.98;65.67
79413;BME280;68863;49.528;11.010;2023-05-10T00:56:01;97496.31;;;16.83;66.50
79413;BME280;68863;49.528;11.010;2023-05-10T00:57:03;97492.31;;;16.95;66.36
79413;BME280;68863;49.528;11.010;2023-05-10T00:58:04;97497.31;;;16.82;66.98
79413;BME280;68863;49.528;11.010;2023-05-10T00:59:05;97496.13;;;16.84;66.83
79413;BME280;68863;49.528;11.010;2023-05-10T01:00:05;97491.81;;;16.67;67.52
79413;BME280;68863;49.528;11.010;2023-05-10T01:01:06;97498.44;;;16.63;68.06
79413;BME280;68863;49.528;11.010;2023-05-10T01:02:07;97496.44;;;16.65;68.43
79413;BME280;68863;49.528;11.010;2023-05-10T01:03:07;97496.78;;;16.70;67.74
79413;BME280;68863;49.528;11.010;2023-05-10T01:04:09;97501.41;;;16.60;68.05
79413;BME280;68863;49.528;11.010;2023-05-10T01:05:11;97501.91;;;16.55;67.43
79413;BME280;68863;49.528;11.010;2023-05-10T01:06:12;97495.78;;;16.47;67.37
79413;BME280;68863;49.528;11.010;2023-05-10T01:07:12;97492.78;;;16.50;67.38
79413;BME280;68863;49.528;11.010;2023-05-10T01:08:13;97501.25;;;16.61;66.74
79413;BME280;68863;49.528;11.010;2023-05-10T01:09:13;97500.25;;;16.54;66.40
79413;BME280;68863;49.528;11.010;2023-05-10T01:10:14;97504.88;;;16.44;66.23
79413;BME280;68863;49.528;11.010;2023-05-10T01:11:14;97501.41;;;16.27;67.02
79413;BME280;68863;49.528;11.010;2023-05-10T01:12:15;97506.69;;;16.19;67.00
79413;BME280;68863;49.528;11.010;2023-05-10T01:13:27;97504.69;;;16.21;66.73
79413;BME280;68863;49.528;11.010;2023-05-10T01:14:30;97508.47;;;16.18;66.90
79413;BME280;68863;49.528;11.010;2023-05-10T01:15:31;97508.31;;;16.12;66.95
79413;BME280;68863;49.528;11.010;2023-05-10T01:16:34;97503.00;;;16.04;67.28
79413;BME280;68863;49.528;11.010;2023-05-10T01:17:37;97505.63;;;15.96;67.06
79413;BME280;68863;49.528;11.010;2023-05-10T01:18:40;97508.44;;;16.02;66.89
79413;BME280;68863;49.528;11.010;2023-05-10T01:19:41;97510.94;;;16.04;66.76
79413;BME280;68863;49.528;11.010;2023-05-10T01:20:46;97509.25;;;16.03;66.34
79413;BME280;68863;49.528;11.010;2023-05-10T01:22:02;97508.63;;;16.01;67.14
79413;BME280;68863;49.528;11.010;2023-05-10T01:26:08;97510.97;;;16.12;67.13
79413;BME280;68863;49.528;11.010;2023-05-10T01:27:23;97509.13;;;16.12;66.89
79413;BME280;68863;49.528;11.010;2023-05-10T01:33:01;97504.00;;;16.11;68.21
79413;BME280;68863;49.528;11.010;2023-05-10T01:34:13;97501.38;;;16.19;68.00
79413;BME280;68863;49.528;11.010;2023-05-10T01:36:26;97503.13;;;15.94;69.07
79413;BME280;68863;49.528;11.010;2023-05-10T01:37:41;97502.50;;;16.00;68.77
79413;BME280;68863;49.528;11.010;2023-05-10T01:38:47;97503.00;;;16.04;68.85
79413;BME280;68863;49.528;11.010;2023-05-10T01:39:56;97503.00;;;16.04;69.53
79413;BME280;68863;49.528;11.010;2023-05-10T01:41:11;97500.53;;;16.18;68.63
79413;BME280;68863;49.528;11.010;2023-05-10T01:42:25;97498.22;;;16.07;69.36
79413;BME280;68863;49.528;11.010;2023-05-10T01:43:30;97501.84;;;16.06;69.42
79413;BME280;68863;49.528;11.010;2023-05-10T01:44:38;97501.72;;;16.16;69.39
79413;BME280;68863;49.528;11.010;2023-05-10T01:46:57;97502.00;;;16.05;70.61
79413;BME280;68863;49.528;11.010;2023-05-10T01:48:09;97506.81;;;16.17;70.22
79413;BME280;68863;49.528;11.010;2023-05-10T01:49:15;97502.19;;;16.11;70.51
79413;BME280;68863;49.528;11.010;2023-05-10T01:50:22;97499.34;;;15.97;71.36
79413;BME280;68863;49.528;11.010;2023-05-10T01:51:26;97503.84;;;16.04;71.08
79413;BME280;68863;49.528;11.010;2023-05-10T01:52:32;97502.84;;;16.05;70.90
79413;BME280;68863;49.528;11.010;2023-05-10T01:53:35;97501.31;;;15.95;71.63
79413;BME280;68863;49.528;11.010;2023-05-10T01:54:48;97501.84;;;16.06;71.19
79413;BME280;68863;49.528;11.010;2023-05-10T01:55:52;97512.78;;;16.11;70.77
79413;BME280;68863;49.528;11.010;2023-05-10T01:57:00;97502.53;;;16.16;70.99
79413;BME280;68863;49.528;11.010;2023-05-10T01:58:09;97506.81;;;16.17;71.06
79413;BME280;68863;49.528;11.010;2023-05-10T01:59:13;97499.38;;;16.21;70.95
79413;BME280;68863;49.528;11.010;2023-05-10T02:00:15;97499.72;;;16.26;70.65
79413;BME280;68863;49.528;11.010;2023-05-10T02:01:17;97508.53;;;16.27;70.65
79413;BME280;68863;49.528;11.010;2023-05-10T02:02:21;97505.38;;;16.23;70.97
79413;BME280;68863;49.528;11.010;2023-05-10T02:03:23;97504.38;;;16.24;71.11
79413;BME280;68863;49.528;11.010;2023-05-10T02:04:25;97506.19;;;16.24;71.11
79413;BME280;68863;49.528;11.010;2023-05-10T02:05:26;97508.84;;;16.24;71.21
79413;BME280;68863;49.528;11.010;2023-05-10T02:06:30;97496.75;;;16.29;71.17
79413;BME280;68863;49.528;11.010;2023-05-10T02:07:35;97504.03;;;16.27;71.42
79413;BME280;68863;49.528;11.010;2023-05-10T02:08:36;97503.69;;;16.30;71.12
79413;BME280;68863;49.528;11.010;2023-05-10T02:09:37;97507.69;;;16.34;71.31
79413;BME280;68863;49.528;11.010;2023-05-10T02:10:39;97508.66;;;16.33;71.21
79413;BME280;68863;49.528;11.010;2023-05-10T02:11:42;97504.19;;;16.34;71.39
79413;BME280;68863;49.528;11.010;2023-05-10T02:12:46;97509.34;;;16.27;71.78
79413;BME280;68863;49.528;11.010;2023-05-10T02:13:49;97512.00;;;16.27;71.63
79413;BME280;68863;49.528;11.010;2023-05-10T02:14:51;97502.41;;;16.34;71.53
79413;BME280;68863;49.528;11.010;2023-05-10T02:15:53;97509.03;;;16.38;71.06
79413;BME280;68863;49.528;11.010;2023-05-10T02:16:55;97508.84;;;16.32;71.47
79413;BME280;68863;49.528;11.010;2023-05-10T02:17:56;97509.03;;;16.38;71.36
79413;BME280;68863;49.528;11.010;2023-05-10T02:18:58;97505.06;;;16.34;71.06
79413;BME280;68863;49.528;11.010;2023-05-10T02:20:01;97505.38;;;16.31;71.39
79413;BME280;68863;49.528;11.010;2023-05-10T02:21:02;97507.69;;;16.34;71.17
79413;BME280;68863;49.528;11.010;2023-05-10T02:22:03;97506.38;;;16.38;70.86
79413;BME280;68863;49.528;11.010;2023-05-10T02:23:05;97505.38;;;16.31;71.41
79413;BME280;68863;49.528;11.010;2023-05-10T02:24:07;97511.00;;;16.28;71.28
79413;BME280;68863;49.528;11.010;2023-05-10T02:25:08;97505.00;;;16.26;71.54
79413;BME280;68863;49.528;11.010;2023-05-10T02:26:11;97508.19;;;16.38;70.78
79413;BME280;68863;49.528;11.010;2023-05-10T02:27:12;97509.03;;;16.38;70.97
79413;BME280;68863;49.528;11.010;2023-05-10T02:28:14;97513.81;;;16.27;71.03
79413;BME280;68863;49.528;11.010;2023-05-10T02:29:16;97505.88;;;16.35;71.03
79413;BME280;68863;49.528;11.010;2023-05-10T02:30:17;97516.47;;;16.35;71.00
79413;BME280;68863;49.528;11.010;2023-05-10T02:31:19;97512.00;;;16.27;71.22
79413;BME280;68863;49.528;11.010;2023-05-10T02:32:21;97513.94;;;16.17;70.79
79413;BME280;68863;49.528;11.010;2023-05-10T02:33:22;97514.44;;;16.21;70.07
79413;BME280;68863;49.528;11.010;2023-05-10T02:34:25;97518.41;;;16.16;70.12
79413;BME280;68863;49.528;11.010;2023-05-10T02:35:27;97517.91;;;16.13;69.42
79413;BME280;68863;49.528;11.010;2023-05-10T02:36:28;97519.56;;;16.14;69.91
79413;BME280;68863;49.528;11.010;2023-05-10T02:37:29;97516.91;;;16.14;69.82
79413;BME280;68863;49.528;11.010;2023-05-10T02:38:31;97524.72;;;16.15;70.14
79413;BME280;68863;49.528;11.010;2023-05-10T02:39:33;97522.56;;;16.19;70.21
79413;BME280;68863;49.528;11.010;2023-05-10T02:40:35;97523.53;;;16.18;70.38
79413;BME280;68863;49.528;11.010;2023-05-10T02:41:37;97522.88;;;16.16;70.40
79413;BME280;68863;49.528;11.010;2023-05-10T02:42:41;97528.38;;;16.23;70.06
79413;BME280;68863;49.528;11.010;2023-05-10T02:43:43;97524.41;;;16.27;69.84
79413;BME280;68863;49.528;11.010;2023-05-10T02:44:47;97522.41;;;16.21;70.39
79413;BME280;68863;49.528;11.010;2023-05-10T02:45:48;97513.16;;;16.33;69.99
79413;BME280;68863;49.528;11.010;2023-05-10T02:46:49;97511.31;;;16.25;70.65
79413;BME280;68863;49.528;11.010;2023-05-10T02:47:50;97515.47;;;16.28;70.54
79413;BME280;68863;49.528;11.010;2023-05-10T02:48:50;97516.09;;;16.22;70.59
79413;BME280;68863;49.528;11.010;2023-05-10T02:49:51;97511.81;;;16.29;70.56
79413;BME280;68863;49.528;11.010;2023-05-10T02:50:52;97513.63;;;16.28;70.75
79413;BME280;68863;49.528;11.010;2023-05-10T02:52:00;97512.31;;;16.32;70.69
79413;BME280;68863;49.528;11.010;2023-05-10T02:53:10;97518.63;;;16.31;70.60
79413;BME280;68863;49.528;11.010;2023-05-10T02:54:18;97515.28;;;16.29;70.55
79413;BME280;68863;49.528;11.010;2023-05-10T02:55:21;97520.56;;;16.21;71.27
79413;BME280;68863;49.528;11.010;2023-05-10T02:56:31;97511.31;;;16.25;70.98
79413;BME280;68863;49.528;11.010;2023-05-10T02:57:34;97522.38;;;16.12;71.33
79413;BME280;68863;49.528;11.010;2023-05-10T02:58:38;97515.94;;;16.15;71.10
79413;BME280;68863;49.528;11.010;2023-05-10T02:59:38;97522.34;;;15.96;70.51
79413;BME280;68863;49.528;11.010;2023-05-10T03:00:40;97514.22;;;15.98;70.95
79413;BME280;68863;49.528;11.010;2023-05-10T03:01:40;97522.50;;;16.03;70.63
79413;BME280;68863;49.528;11.010;2023-05-10T03:02:40;97519.50;;;15.89;70.80
79413;BME280;68863;49.528;11.010;2023-05-10T03:03:41;97514.63;;;15.68;71.25
79413;BME280;68863;49.528;11.010;2023-05-10T03:04:41;97520.44;;;15.72;71.22
79413;BME280;68863;49.528;11.010;2023-05-10T03:05:42;97517.81;;;15.80;70.71
79413;BME280;68863;49.528;11.010;2023-05-10T03:06:42;97513.63;;;15.70;71.34
79413;BME280;68863;49.528;11.010;2023-05-10T03:07:43;97519.53;;;15.63;71.78
79413;BME280;68863;49.528;11.010;2023-05-10T03:08:44;97518.94;;;15.70;72.17
79413;BME280;68863;49.528;11.010;2023-05-10T03:09:48;97520.28;;;15.74;71.91
79413;BME280;68863;49.528;11.010;2023-05-10T03:16:36;97520.31;;;15.56;72.05
79413;BME280;68863;49.528;11.010;2023-05-10T03:18:52;97527.59;;;15.54;71.59
79413;BME280;68863;49.528;11.010;2023-05-10T03:19:56;97521.56;;;15.43;71.63
79413;BME280;68863;49.528;11.010;2023-05-10T03:21:02;97520.28;;;15.48;71.87
79413;BME280;68863;49.528;11.010;2023-05-10T03:22:08;97523.88;;;15.38;71.97
79413;BME280;68863;49.528;11.010;2023-05-10T03:23:30;97523.47;;;15.59;71.53
79413;BME280;68863;49.528;11.010;2023-05-10T03:24:35;97525.44;;;15.49;72.19
79413;BME280;68863;49.528;11.010;2023-05-10T03:25:37;97526.50;;;15.64;71.56
79413;BME280;68863;49.528;11.010;2023-05-10T03:26:38;97529.81;;;15.66;71.97
79413;BME280;68863;49.528;11.010;2023-05-10T03:27:41;97531.69;;;15.74;71.47
79413;BME280;68863;49.528;11.010;2023-05-10T03:28:43;97528.22;;;15.74;71.20
79413;BME280;68863;49.528;11.010;2023-05-10T03:29:44;97533.69;;;15.80;70.83
79413;BME280;68863;49.528;11.010;2023-05-10T03:30:46;97533.34;;;15.83;70.71
79413;BME280;68863;49.528;11.010;2023-05-10T03:31:47;97531.56;;;15.84;70.77
79413;BME280;68863;49.528;11.010;2023-05-10T03:32:47;97531.03;;;15.72;71.64
79413;BME280;68863;49.528;11.010;2023-05-10T03:33:49;97531.84;;;15.73;71.72
79413;BME280;68863;49.528;11.010;2023-05-10T03:34:49;97533.34;;;15.75;72.03
79413;BME280;68863;49.528;11.010;2023-05-10T03:35:49;97533.69;;;15.80;71.88
79413;BME280;68863;49.528;11.010;2023-05-10T03:36:50;97538.16;;;15.80;71.80
79413;BME280;68863;49.528;11.010;2023-05-10T03:37:50;97534.31;;;15.74;72.34
79413;BME280;68863;49.528;11.010;2023-05-10T03:38:50;97539.66;;;15.82;71.63
79413;BME280;68863;49.528;11.010;2023-05-10T03:39:51;97538.66;;;15.83;71.16
79413;BME280;68863;49.528;11.010;2023-05-10T03:40:51;97533.69;;;15.80;71.29
79413;BME280;68863;49.528;11.010;2023-05-10T03:41:51;97538.16;;;15.80;71.27
79413;BME280;68863;49.528;11.010;2023-05-10T03:42:51;97534.63;;;15.71;70.84
79413;BME280;68863;49.528;11.010;2023-05-10T03:43:52;97541.22;;;15.67;71.36
79413;BME280;68863;49.528;11.010;2023-05-10T03:44:52;97541.47;;;15.56;71.34
79413;BME280;68863;49.528;11.010;2023-05-10T03:45:52;97543.91;;;15.41;71.08
79413;BME280;68863;49.528;11.010;2023-05-10T03:46:53;97547.22;;;15.43;71.51
79413;BME280;68863;49.528;11.010;2023-05-10T03:47:53;97550.53;;;15.45;71.41
79413;BME280;68863;49.528;11.010;2023-05-10T03:48:53;97544.91;;;15.48;71.23
79413;BME280;68863;49.528;11.010;2023-05-10T03:49:54;97550.31;;;15.38;71.43
79413;BME280;68863;49.528;11.010;2023-05-10T03:50:54;97545.97;;;15.29;71.44
79413;BME280;68863;49.528;11.010;2023-05-10T03:51:54;97553.53;;;15.24;71.88
79413;BME280;68863;49.528;11.010;2023-05-10T03:52:55;97546.13;;;15.28;71.24
79413;BME280;68863;49.528;11.010;2023-05-10T03:53:55;97554.88;;;15.28;70.86
79413;BME280;68863;49.528;11.010;2023-05-10T03:54:55;97551.97;;;15.13;71.11
79413;BME280;68863;49.528;11.010;2023-05-10T03:55:56;97556.81;;;15.18;71.30
79413;BME280;68863;49.528;11.010;2023-05-10T03:56:56;97558.16;;;15.22;70.98
79413;BME280;68863;49.528;11.010;2023-05-10T03:57:59;97558.50;;;15.27;70.33
79413;BME280;68863;49.528;11.010;2023-05-10T03:58:59;97560.41;;;15.17;70.75
79413;BME280;68863;49.528;11.010;2023-05-10T03:59:59;97563.00;;;15.09;71.14
79413;BME280;68863;49.528;11.010;2023-05-10T04:01:00;97563.25;;;14.98;71.55
79413;BME280;68863;49.528;11.010;2023-05-10T04:02:00;97565.81;;;15.07;71.32
79413;BME280;68863;49.528;11.010;2023-05-10T04:03:00;97563.47;;;15.04;71.58
79413;BME280;68863;49.528;11.010;2023-05-10T04:04:01;97573.06;;;15.05;71.78
79413;BME280;68863;49.528;11.010;2023-05-10T04:05:01;97561.81;;;15.03;71.42
79413;BME280;68863;49.528;11.010;2023-05-10T04:06:02;97570.28;;;14.89;71.82
79413;BME280;68863;49.528;11.010;2023-05-10T04:07:03;97570.22;;;14.99;71.48
79413;BME280;68863;49.528;11.010;2023-05-10T04:08:03;97577.16;;;15.00;71.76
79413;BME280;68863;49.528;11.010;2023-05-10T04:09:04;97568.09;;;15.02;71.79
79413;BME280;68863;49.528;11.010;2023-05-10T04:10:05;97574.69;;;14.98;71.59
79413;BME280;68863;49.528;11.010;2023-05-10T04:11:09;97573.81;;;14.98;71.75
79413;BME280;68863;49.528;11.010;2023-05-10T04:12:10;97580.94;;;14.97;71.14
79413;BME280;68863;49.528;11.010;2023-05-10T04:13:10;97581.09;;;14.95;70.81
79413;BME280;68863;49.528;11.010;2023-05-10T04:14:11;97585.44;;;15.05;70.43
79413;BME280;68863;49.528;11.010;2023-05-10T04:15:11;97583.81;;;14.86;71.16
79413;BME280;68863;49.528;11.010;2023-05-10T04:16:11;97586.44;;;14.86;71.08
79413;BME280;68863;49.528;11.010;2023-05-10T04:17:12;97581.09;;;14.95;70.84
79413;BME280;68863;49.528;11.010;2023-05-10T04:18:12;97584.88;;;14.93;70.87
79413;BME280;68863;49.528;11.010;2023-05-10T04:19:12;97586.31;;;14.87;71.07
79413;BME280;68863;49.528;11.010;2023-05-10T04:20:13;97587.97;;;14.88;71.14
79413;BME280;68863;49.528;11.010;2023-05-10T04:21:13;97588.03;;;14.97;71.02
79413;BME280;68863;49.528;11.010;2023-05-10T04:22:14;97585.56;;;14.95;71.15
79413;BME280;68863;49.528;11.010;2023-05-10T04:23:14;97581.91;;;14.96;70.88
79413;BME280;68863;49.528;11.010;2023-05-10T04:24:16;97591.56;;;15.05;70.63
79413;BME280;68863;49.528;11.010;2023-05-10T04:25:16;97586.09;;;14.99;71.59
79413;BME280;68863;49.528;11.010;2023-05-10T04:26:17;97581.63;;;14.99;70.85
79413;BME280;68863;49.528;11.010;2023-05-10T04:27:17;97587.38;;;14.94;71.17
79413;BME280;68863;49.528;11.010;2023-05-10T04:28:17;97594.66;;;15.01;71.18
79413;BME280;68863;49.528;11.010;2023-05-10T04:29:18;97589.69;;;14.98;70.82
79413;BME280;68863;49.528;11.010;2023-05-10T04:30:18;97591.50;;;14.97;70.28
79413;BME280;68863;49.528;11.010;2023-05-10T04:31:18;97588.19;;;14.77;71.64
79413;BME280;68863;49.528;11.010;2023-05-10T04:32:19;97588.97;;;14.87;71.60
79413;BME280;68863;49.528;11.010;2023-05-10T04:33:20;97589.63;;;14.89;71.21
79413;BME280;68863;49.528;11.010;2023-05-10T04:34:20;97592.19;;;14.99;71.13
79413;BME280;68863;49.528;11.010;2023-05-10T04:35:21;97593.88;;;14.82;71.27
79413;BME280;68863;49.528;11.010;2023-05-10T04:36:21;97590.25;;;14.83;70.75
79413;BME280;68863;49.528;11.010;2023-05-10T04:37:21;97593.56;;;14.85;71.80
79413;BME280;68863;49.528;11.010;2023-05-10T04:38:23;97593.09;;;14.90;71.38
79413;BME280;68863;49.528;11.010;2023-05-10T04:39:23;97600.66;;;14.85;71.03
79413;BME280;68863;49.528;11.010;2023-05-10T04:40:23;97599.53;;;14.87;71.34
79413;BME280;68863;49.528;11.010;2023-05-10T04:41:24;97606.69;;;14.95;70.99
79413;BME280;68863;49.528;11.010;2023-05-10T04:42:25;97603.81;;;14.88;70.72
79413;BME280;68863;49.528;11.010;2023-05-10T04:43:26;97600.66;;;14.85;70.96
79413;BME280;68863;49.528;11.010;2023-05-10T04:44:26;97604.59;;;14.99;70.65
79413;BME280;68863;49.528;11.010;2023-05-10T04:45:26;97604.88;;;14.95;70.46
79413;BME280;68863;49.528;11.010;2023-05-10T04:46:27;97599.53;;;14.87;70.72
79413;BME280;68863;49.528;11.010;2023-05-10T04:47:27;97609.88;;;14.81;70.68
79413;BME280;68863;49.528;11.010;2023-05-10T04:48:27;97602.31;;;14.68;70.91
79413;BME280;68863;49.528;11.010;2023-05-10T04:49:28;97599.47;;;14.79;71.01
79413;BME280;68863;49.528;11.010;2023-05-10T04:50:28;97607.25;;;14.63;70.47
79413;BME280;68863;49.528;11.010;2023-05-10T04:51:29;97606.53;;;14.61;70.93
79413;BME280;68863;49.528;11.010;2023-05-10T04:52:32;97610.53;;;14.65;71.09
79413;BME280;68863;49.528;11.010;2023-05-10T04:53:32;97607.75;;;14.66;70.88
79413;BME280;68863;49.528;11.010;2023-05-10T04:54:32;97617.13;;;14.79;70.86
79413;BME280;68863;49.528;11.010;2023-05-10T04:55:33;97618.25;;;14.76;70.64
79413;BME280;68863;49.528;11.010;2023-05-10T04:56:33;97620.72;;;14.78;70.53
79413;BME280;68863;49.528;11.010;2023-05-10T04:57:33;97618.53;;;14.73;70.67
79413;BME280;68863;49.528;11.010;2023-05-10T04:58:34;97616.91;;;14.72;70.49
79413;BME280;68863;49.528;11.010;2023-05-10T04:59:35;97621.06;;;14.75;70.44
79413;BME280;68863;49.528;11.010;2023-05-10T05:00:37;97618.00;;;14.69;70.44
79413;BME280;68863;49.528;11.010;2023-05-10T05:01:37;97613.09;;;14.57;70.83
79413;BME280;68863;49.528;11.010;2023-05-10T05:02:37;97617.03;;;14.53;70.19
79413;BME280;68863;49.528;11.010;2023-05-10T05:03:38;97621.41;;;14.62;70.27
79413;BME280;68863;49.528;11.010;2023-05-10T05:04:38;97623.59;;;14.66;70.11
79413;BME280;68863;49.528;11.010;2023-05-10T05:05:38;97619.47;;;14.64;70.77
79413;BME280;68863;49.528;11.010;2023-05-10T05:06:38;97622.59;;;14.50;70.86
79413;BME280;68863;49.528;11.010;2023-05-10T05:07:39;97621.19;;;14.55;70.75
79413;BME280;68863;49.528;11.010;2023-05-10T05:08:39;97620.66;;;14.52;70.48
79413;BME280;68863;49.528;11.010;2023-05-10T05:09:39;97625.56;;;14.64;71.22
79413;BME280;68863;49.528;11.010;2023-05-10T05:10:40;97628.88;;;14.66;70.89
79413;BME280;68863;49.528;11.010;2023-05-10T05:11:40;97622.34;;;14.70;70.54
79413;BME280;68863;49.528;11.010;2023-05-10T05:12:40;97629.56;;;14.68;71.03
79413;BME280;68863;49.528;11.010;2023-05-10T05:13:41;97627.47;;;14.72;70.22
79413;BME280;68863;49.528;11.010;2023-05-10T05:14:41;97630.47;;;14.77;70.09
79413;BME280;68863;49.528;11.010;2023-05-10T05:15:41;97629.13;;;14.73;70.80
79413;BME280;68863;49.528;11.010;2023-05-10T05:16:42;97641.25;;;14.66;70.67
79413;BME280;68863;49.528;11.010;2023-05-10T05:17:43;97637.13;;;14.63;70.31
79413;BME280;68863;49.528;11.010;2023-05-10T05:18:45;97635.84;;;14.67;70.30
79413;BME280;68863;49.528;11.010;2023-05-10T05:19:45;97639.97;;;14.70;70.07
79413;BME280;68863;49.528;11.010;2023-05-10T05:20:46;97642.78;;;14.68;70.09
79413;BME280;68863;49.528;11.010;2023-05-10T05:21:46;97643.91;;;14.66;69.52
79413;BME280;68863;49.528;11.010;2023-05-10T05:22:46;97643.97;;;14.74;69.77
79413;BME280;68863;49.528;11.010;2023-05-10T05:23:46;97644.16;;;14.73;69.61
79413;BME280;68863;49.528;11.010;2023-05-10T05:24:47;97643.84;;;14.76;69.66
79413;BME280;68863;49.528;11.010;2023-05-10T05:25:47;97648.06;;;14.68;70.28
79413;BME280;68863;49.528;11.010;2023-05-10T05:26:47;97641.13;;;14.67;69.48
79413;BME280;68863;49.528;11.010;2023-05-10T05:27:48;97650.78;;;14.77;68.80
79413;BME280;68863;49.528;11.010;2023-05-10T05:28:48;97647.97;;;14.78;69.26
79413;BME280;68863;49.528;11.010;2023-05-10T05:29:58;97647.47;;;14.75;69.63
79413;BME280;68863;49.528;11.010;2023-05-10T05:30:58;97647.63;;;14.73;69.90
79413;BME280;68863;49.528;11.010;2023-05-10T05:31:58;97644.16;;;14.73;69.75
79413;BME280;68863;49.528;11.010;2023-05-10T05:32:58;97646.03;;;14.80;69.61
79413;BME280;68863;49.528;11.010;2023-05-10T05:33:59;97644.69;;;14.76;69.59
79413;BME280;68863;49.528;11.010;2023-05-10T05:34:59;97652.69;;;14.84;69.91
79413;BME280;68863;49.528;11.010;2023-05-10T05:36:04;97648.22;;;14.85;70.14
79413;BME280;68863;49.528;11.010;2023-05-10T05:37:04;97649.97;;;14.76;69.58
79413;BME280;68863;49.528;11.010;2023-05-10T05:38:05;97649.22;;;14.84;69.37
79413;BME280;68863;49.528;11.010;2023-05-10T05:39:06;97648.69;;;14.80;69.73
79413;BME280;68863;49.528;11.010;2023-05-10T05:40:06;97651.09;;;14.74;70.06